sensor_id;sensor_type;location;lat;lon;timestamp;pressure;altitude;pressure_sealevel;temperature;humidity
37486;BME280;23341;50.296;18.960;2022-11-15T00:01:51;113062.75;;;-144.43;100.00
37486;BME280;23341;50.296;18.960;2022-11-15T00:07:47;113062.75;;;-144.43;100.00
37486;BME280;23341;50.296;18.960;2022-11-15T00:13:35;113062.75;;;-144.43;100.00
37486;BME280;23341;50.296;18.960;2022-11-15T00:19:30;113062.75;;;-144.43;100.00
37486;BME280;23341;50.296;18.960;2022-11-15T00:25:27;113062.75;;;-144.43;100.00
37486;BME280;23341;50.296;18.960;2022-11-15T00:31:23;113062.75;;;-144.43;100.00
37486;BME280;23341;50.296;18.960;2022-11-15T00:37:18;113062.75;;;-144.43;100.00
37486;BME280;23341;50.296;18.960;2022-11-15T00:43:14;113062.75;;;-144.43;100.00
37486;BME280;23341;50.296;18.960;2022-11-15T00:49:02;113062.75;;;-144.43;100.00
37486;BME280;23341;50.296;18.960;2022-11-15T00:54:57;113062.75;;;-144.43;100.00
37486;BME280;23341;50.296;18.960;2022-11-15T01:00:54;113062.75;;;-144.43;100.00
37486;BME280;23341;50.296;18.960;2022-11-15T01:06:49;113062.75;;;-144.43;100.00
37486;BME280;23341;50.296;18.960;2022-11-15T01:12:44;113062.75;;;-144.43;100.00
37486;BME280;23341;50.296;18.960;2022-11-15T01:18:40;113062.75;;;-144.43;100.00
37486;BME280;23341;50.296;18.960;2022-11-15T01:24:29;113062.75;;;-144.43;100.00
37486;BME280;23341;50.296;18.960;2022-11-15T01:30:24;113062.75;;;-144.43;100.00
37486;BME280;23341;50.296;18.960;2022-11-15T01:36:21;113062.75;;;-144.43;100.00
37486;BME280;23341;50.296;18.960;2022-11-15T01:42:12;113062.75;;;-144.43;100.00
37486;BME280;23341;50.296;18.960;2022-11-15T01:48:08;113062.75;;;-144.43;100.00
37486;BME280;23341;50.296;18.960;2022-11-15T01:54:08;113062.75;;;-144.43;100.00
37486;BME280;23341;50.296;18.960;2022-11-15T02:00:06;113062.75;;;-144.43;100.00
37486;BME280;23341;50.296;18.960;2022-11-15T02:06:02;113062.75;;;-144.43;100.00
37486;BME280;23341;50.296;18.960;2022-11-15T02:11:59;113062.75;;;-144.43;100.00
37486;BME280;23341;50.296;18.960;2022-11-15T02:18:07;113062.75;;;-144.43;100.00
37486;BME280;23341;50.296;18.960;2022-11-15T02:30:54;113062.75;;;-144.43;100.00
37486;BME280;23341;50.296;18.960;2022-11-15T02:37:02;113062.75;;;-144.43;100.00
37486;BME280;23341;50.296;18.960;2022-11-15T02:43:04;113062.75;;;-144.43;100.00
37486;BME280;23341;50.296;18.960;2022-11-15T02:49:19;113062.75;;;-144.43;100.00
37486;BME280;23341;50.296;18.960;2022-11-15T02:55:28;113062.75;;;-144.43;100.00
37486;BME280;23341;50.296;18.960;2022-11-15T03:08:54;113062.75;;;-144.43;100.00
37486;BME280;23341;50.296;18.960;2022-11-15T03:14:52;113062.75;;;-144.43;100.00
37486;BME280;23341;50.296;18.960;2022-11-15T03:20:50;113062.75;;;-144.43;100.00
37486;BME280;23341;50.296;18.960;2022-11-15T03:26:41;113062.75;;;-144.43;100.00
37486;BME280;23341;50.296;18.960;2022-11-15T03:32:40;113062.75;;;-144.43;100.00
37486;BME280;23341;50.296;18.960;2022-11-15T03:38:37;113062.75;;;-144.43;100.00
37486;BME280;23341;50.296;18.960;2022-11-15T03:44:40;113062.75;;;-144.43;100.00
37486;BME280;23341;50.296;18.960;2022-11-15T03:50:30;113062.75;;;-144.43;100.00
37486;BME280;23341;50.296;18.960;2022-11-15T03:56:27;113062.75;;;-144.43;100.00
37486;BME280;23341;50.296;18.960;2022-11-15T04:02:23;113062.75;;;-144.43;100.00
37486;BME280;23341;50.296;18.960;2022-11-15T04:08:18;113062.75;;;-144.43;100.00
37486;BME280;23341;50.296;18.960;2022-11-15T04:14:13;113062.75;;;-144.43;100.00
37486;BME280;23341;50.296;18.960;2022-11-15T04:20:12;113062.75;;;-144.43;100.00
37486;BME280;23341;50.296;18.960;2022-11-15T04:26:24;113062.75;;;-144.43;100.00
37486;BME280;23341;50.296;18.960;2022-11-15T04:32:19;113062.75;;;-144.43;100.00
37486;BME280;23341;50.296;18.960;2022-11-15T04:38:09;113062.75;;;-144.43;100.00
37486;BME280;23341;50.296;18.960;2022-11-15T04:44:05;113062.75;;;-144.43;100.00
37486;BME280;23341;50.296;18.960;2022-11-15T04:50:01;113062.75;;;-144.43;100.00
37486;BME280;23341;50.296;18.960;2022-11-15T04:56:00;113062.75;;;-144.43;100.00
37486;BME280;23341;50.296;18.960;2022-11-15T05:01:56;113062.75;;;-144.43;100.00
37486;BME280;23341;50.296;18.960;2022-11-15T05:07:44;113062.75;;;-144.43;100.00
37486;BME280;23341;50.296;18.960;2022-11-15T05:13:40;113062.75;;;-144.43;100.00
37486;BME280;23341;50.296;18.960;2022-11-15T05:19:35;113062.75;;;-144.43;100.00
37486;BME280;23341;50.296;18.960;2022-11-15T05:25:31;113062.75;;;-144.43;100.00
37486;BME280;23341;50.296;18.960;2022-11-15T05:31:21;113062.75;;;-144.43;100.00
37486;BME280;23341;50.296;18.960;2022-11-15T05:37:16;113062.75;;;-144.43;100.00
37486;BME280;23341;50.296;18.960;2022-11-15T05:43:12;113062.75;;;-144.43;100.00
37486;BME280;23341;50.296;18.960;2022-11-15T05:48:55;113062.75;;;-144.43;100.00
37486;BME280;23341;50.296;18.960;2022-11-15T05:54:51;113062.75;;;-144.43;100.00
37486;BME280;23341;50.296;18.960;2022-11-15T06:00:47;113062.75;;;-144.43;100.00
37486;BME280;23341;50.296;18.960;2022-11-15T06:06:43;113062.75;;;-144.43;100.00
37486;BME280;23341;50.296;18.960;2022-11-15T06:12:38;113062.75;;;-144.43;100.00
37486;BME280;23341;50.296;18.960;2022-11-15T06:18:33;113062.75;;;-144.43;100.00
37486;BME280;23341;50.296;18.960;2022-11-15T06:24:30;113062.75;;;-144.43;100.00
37486;BME280;23341;50.296;18.960;2022-11-15T06:30:26;113062.75;;;-144.43;100.00
37486;BME280;23341;50.296;18.960;2022-11-15T06:36:21;113062.75;;;-144.43;100.00
37486;BME280;23341;50.296;18.960;2022-11-15T06:42:04;113062.75;;;-144.43;100.00
37486;BME280;23341;50.296;18.960;2022-11-15T06:47:59;113062.75;;;-144.43;100.00
37486;BME280;23341;50.296;18.960;2022-11-15T06:53:54;113062.75;;;-144.43;100.00
37486;BME280;23341;50.296;18.960;2022-11-15T06:59:50;113062.75;;;-144.43;100.00
37486;BME280;23341;50.296;18.960;2022-11-15T07:05:51;113062.75;;;-144.43;100.00
37486;BME280;23341;50.296;18.960;2022-11-15T07:11:46;113062.75;;;-144.43;100.00
37486;BME280;23341;50.296;18.960;2022-11-15T07:17:49;113062.75;;;-144.43;100.00
37486;BME280;23341;50.296;18.960;2022-11-15T07:23:48;113062.75;;;-144.43;100.00
37486;BME280;23341;50.296;18.960;2022-11-15T07:29:44;113062.75;;;-144.43;100.00
37486;BME280;23341;50.296;18.960;2022-11-15T07:35:40;113062.75;;;-144.43;100.00
37486;BME280;23341;50.296;18.960;2022-11-15T07:41:36;113062.75;;;-144.43;100.00
37486;BME280;23341;50.296;18.960;2022-11-15T07:47:32;113062.75;;;-144.43;100.00
37486;BME280;23341;50.296;18.960;2022-11-15T07:53:28;113062.75;;;-144.43;100.00
37486;BME280;23341;50.296;18.960;2022-11-15T07:59:09;113062.75;;;-144.43;100.00
37486;BME280;23341;50.296;18.960;2022-11-15T08:05:05;113062.75;;;-144.43;100.00
37486;BME280;23341;50.296;18.960;2022-11-15T08:11:01;113062.75;;;-144.43;100.00
37486;BME280;23341;50.296;18.960;2022-11-15T08:16:50;113062.75;;;-144.43;99.28
37486;BME280;23341;50.296;18.960;2022-11-15T08:22:46;113062.75;;;-144.43;93.99
37486;BME280;23341;50.296;18.960;2022-11-15T08:28:42;113062.75;;;-144.43;93.61
37486;BME280;23341;50.296;18.960;2022-11-15T08:34:37;113062.75;;;-144.43;89.46
37486;BME280;23341;50.296;18.960;2022-11-15T08:40:32;113062.75;;;-144.43;89.82
37486;BME280;23341;50.296;18.960;2022-11-15T08:46:28;113062.75;;;-144.43;88.92
37486;BME280;23341;50.296;18.960;2022-11-15T08:52:23;113062.75;;;-144.43;89.37
37486;BME280;23341;50.296;18.960;2022-11-15T08:58:18;113062.75;;;-144.43;89.77
37486;BME280;23341;50.296;18.960;2022-11-15T09:04:14;113062.75;;;-144.43;90.93
37486;BME280;23341;50.296;18.960;2022-11-15T09:10:09;113062.75;;;-144.43;88.88
37486;BME280;23341;50.296;18.960;2022-11-15T09:16:04;113062.75;;;-144.43;85.15
37486;BME280;23341;50.296;18.960;2022-11-15T09:21:47;113062.75;;;-144.43;85.19
37486;BME280;23341;50.296;18.960;2022-11-15T09:27:42;113062.75;;;-144.43;84.06
37486;BME280;23341;50.296;18.960;2022-11-15T09:33:38;113062.75;;;-144.43;82.79
37486;BME280;23341;50.296;18.960;2022-11-15T09:39:34;113062.75;;;-144.43;76.52
37486;BME280;23341;50.296;18.960;2022-11-15T09:45:24;113062.75;;;-144.43;74.78
37486;BME280;23341;50.296;18.960;2022-11-15T09:51:29;113062.75;;;-144.43;75.94
37486;BME280;23341;50.296;18.960;2022-11-15T09:57:19;113062.75;;;-144.43;75.90
37486;BME280;23341;50.296;18.960;2022-11-15T10:03:08;113062.75;;;-144.43;77.39
37486;BME280;23341;50.296;18.960;2022-11-15T10:08:52;113062.75;;;-144.43;74.33
37486;BME280;23341;50.296;18.960;2022-11-15T10:14:32;113062.75;;;-144.43;73.07
37486;BME280;23341;50.296;18.960;2022-11-15T10:20:19;113062.75;;;-144.43;75.07
37486;BME280;23341;50.296;18.960;2022-11-15T10:25:59;113062.75;;;-144.43;78.64
37486;BME280;23341;50.296;18.960;2022-11-15T10:31:39;113062.75;;;-144.43;78.87
37486;BME280;23341;50.296;18.960;2022-11-15T10:37:27;113062.75;;;-144.43;80.08
37486;BME280;23341;50.296;18.960;2022-11-15T10:43:13;113062.75;;;-144.43;78.95
37486;BME280;23341;50.296;18.960;2022-11-15T10:49:12;113062.75;;;-144.43;80.21
37486;BME280;23341;50.296;18.960;2022-11-15T10:54:52;113062.75;;;-144.43;78.15
37486;BME280;23341;50.296;18.960;2022-11-15T11:00:33;113062.75;;;-144.43;79.06
37486;BME280;23341;50.296;18.960;2022-11-15T11:06:14;113062.75;;;-144.43;80.92
37486;BME280;23341;50.296;18.960;2022-11-15T11:11:52;113062.75;;;-144.43;81.32
37486;BME280;23341;50.296;18.960;2022-11-15T11:17:42;113062.75;;;-144.43;77.72
37486;BME280;23341;50.296;18.960;2022-11-15T11:23:43;113062.75;;;-144.43;74.46
37486;BME280;23341;50.296;18.960;2022-11-15T11:29:32;113062.75;;;-144.43;74.13
37486;BME280;23341;50.296;18.960;2022-11-15T11:35:17;113062.75;;;-144.43;71.98
37486;BME280;23341;50.296;18.960;2022-11-15T11:41:05;113062.75;;;-144.43;69.52
37486;BME280;23341;50.296;18.960;2022-11-15T11:46:55;113062.75;;;-144.43;68.66
37486;BME280;23341;50.296;18.960;2022-11-15T11:52:36;113062.75;;;-144.43;68.78
37486;BME280;23341;50.296;18.960;2022-11-15T11:58:20;113062.75;;;-144.43;67.33
37486;BME280;23341;50.296;18.960;2022-11-15T12:04:02;113062.75;;;-144.43;66.68
37486;BME280;23341;50.296;18.960;2022-11-15T12:09:44;113062.75;;;-144.43;65.83
37486;BME280;23341;50.296;18.960;2022-11-15T12:15:29;113062.75;;;-144.43;66.03
37486;BME280;23341;50.296;18.960;2022-11-15T12:21:16;113062.75;;;-144.43;68.58
37486;BME280;23341;50.296;18.960;2022-11-15T12:26:59;113062.75;;;-144.43;70.00
37486;BME280;23341;50.296;18.960;2022-11-15T12:32:39;113062.75;;;-144.43;69.62
37486;BME280;23341;50.296;18.960;2022-11-15T12:38:55;113062.75;;;-144.43;70.94
37486;BME280;23341;50.296;18.960;2022-11-15T12:44:57;113062.75;;;-144.43;71.56
37486;BME280;23341;50.296;18.960;2022-11-15T12:50:55;113062.75;;;-144.43;73.85
37486;BME280;23341;50.296;18.960;2022-11-15T12:56:32;113062.75;;;-144.43;74.43
37486;BME280;23341;50.296;18.960;2022-11-15T13:02:18;113062.75;;;-144.43;75.38
37486;BME280;23341;50.296;18.960;2022-11-15T13:07:57;113062.75;;;-144.43;76.81
37486;BME280;23341;50.296;18.960;2022-11-15T13:13:43;113062.75;;;-144.43;77.58
37486;BME280;23341;50.296;18.960;2022-11-15T13:19:22;113062.75;;;-144.43;76.60
37486;BME280;23341;50.296;18.960;2022-11-15T13:25:02;113062.75;;;-144.43;76.27
37486;BME280;23341;50.296;18.960;2022-11-15T13:30:41;113062.75;;;-144.43;77.17
37486;BME280;23341;50.296;18.960;2022-11-15T13:36:20;113062.75;;;-144.43;78.01
37486;BME280;23341;50.296;18.960;2022-11-15T13:41:59;113062.75;;;-144.43;79.80
37486;BME280;23341;50.296;18.960;2022-11-15T13:47:37;113062.75;;;-144.43;79.66
37486;BME280;23341;50.296;18.960;2022-11-15T13:53:14;113062.75;;;-144.43;81.10
37486;BME280;23341;50.296;18.960;2022-11-15T13:58:52;113062.75;;;-144.43;80.46
37486;BME280;23341;50.296;18.960;2022-11-15T14:04:30;113062.75;;;-144.43;81.88
37486;BME280;23341;50.296;18.960;2022-11-15T14:10:25;113062.75;;;-144.43;83.15
37486;BME280;23341;50.296;18.960;2022-11-15T14:16:20;113062.75;;;-144.43;81.39
37486;BME280;23341;50.296;18.960;2022-11-15T14:22:15;113062.75;;;-144.43;81.99
37486;BME280;23341;50.296;18.960;2022-11-15T14:28:15;113062.75;;;-144.43;83.48
37486;BME280;23341;50.296;18.960;2022-11-15T14:33:54;113062.75;;;-144.43;85.64
37486;BME280;23341;50.296;18.960;2022-11-15T14:39:31;113062.75;;;-144.43;85.60
37486;BME280;23341;50.296;18.960;2022-11-15T14:45:12;113062.75;;;-144.43;87.06
37486;BME280;23341;50.296;18.960;2022-11-15T14:50:50;113062.75;;;-144.43;87.49
37486;BME280;23341;50.296;18.960;2022-11-15T14:56:27;113062.75;;;-144.43;86.70
37486;BME280;23341;50.296;18.960;2022-11-15T15:02:10;113062.75;;;-144.43;87.01
37486;BME280;23341;50.296;18.960;2022-11-15T15:07:52;113062.75;;;-144.43;86.63
37486;BME280;23341;50.296;18.960;2022-11-15T15:13:29;113062.75;;;-144.43;85.75
37486;BME280;23341;50.296;18.960;2022-11-15T15:25:23;113062.75;;;-144.43;87.99
37486;BME280;23341;50.296;18.960;2022-11-15T15:31:19;113062.75;;;-144.43;89.87
37486;BME280;23341;50.296;18.960;2022-11-15T15:37:18;113062.75;;;-144.43;89.70
37486;BME280;23341;50.296;18.960;2022-11-15T15:42:57;113062.75;;;-144.43;88.90
37486;BME280;23341;50.296;18.960;2022-11-15T15:48:34;113062.75;;;-144.43;88.71
37486;BME280;23341;50.296;18.960;2022-11-15T15:54:11;113062.75;;;-144.43;89.20
37486;BME280;23341;50.296;18.960;2022-11-15T15:59:49;113062.75;;;-144.43;89.77
37486;BME280;23341;50.296;18.960;2022-11-15T16:05:29;113062.75;;;-144.43;90.83
37486;BME280;23341;50.296;18.960;2022-11-15T16:11:07;113062.75;;;-144.43;90.63
37486;BME280;23341;50.296;18.960;2022-11-15T16:16:45;113062.75;;;-144.43;91.84
37486;BME280;23341;50.296;18.960;2022-11-15T16:22:22;113062.75;;;-144.43;91.60
37486;BME280;23341;50.296;18.960;2022-11-15T16:27:59;113062.75;;;-144.43;91.31
37486;BME280;23341;50.296;18.960;2022-11-15T16:33:38;113062.75;;;-144.43;91.52
37486;BME280;23341;50.296;18.960;2022-11-15T16:39:41;113062.75;;;-144.43;92.23
37486;BME280;23341;50.296;18.960;2022-11-15T16:45:33;113062.75;;;-144.43;93.38
37486;BME280;23341;50.296;18.960;2022-11-15T16:51:20;113062.75;;;-144.43;95.37
37486;BME280;23341;50.296;18.960;2022-11-15T16:57:04;113062.75;;;-144.43;97.18
37486;BME280;23341;50.296;18.960;2022-11-15T17:02:41;113062.75;;;-144.43;99.54
37486;BME280;23341;50.296;18.960;2022-11-15T17:08:19;113062.75;;;-144.43;100.00
37486;BME280;23341;50.296;18.960;2022-11-15T17:13:56;113062.75;;;-144.43;100.00
37486;BME280;23341;50.296;18.960;2022-11-15T17:19:33;113062.75;;;-144.43;100.00
37486;BME280;23341;50.296;18.960;2022-11-15T17:25:12;113062.75;;;-144.43;100.00
37486;BME280;23341;50.296;18.960;2022-11-15T17:30:49;113062.75;;;-144.43;100.00
37486;BME280;23341;50.296;18.960;2022-11-15T17:36:26;113062.75;;;-144.43;100.00
37486;BME280;23341;50.296;18.960;2022-11-15T17:42:04;113062.75;;;-144.43;100.00
37486;BME280;23341;50.296;18.960;2022-11-15T17:47:42;113062.75;;;-144.43;99.15
37486;BME280;23341;50.296;18.960;2022-11-15T17:53:26;113062.75;;;-144.43;98.42
37486;BME280;23341;50.296;18.960;2022-11-15T17:59:04;113062.75;;;-144.43;98.27
37486;BME280;23341;50.296;18.960;2022-11-15T18:04:59;113062.75;;;-144.43;97.67
37486;BME280;23341;50.296;18.960;2022-11-15T18:10:49;113062.75;;;-144.43;99.77
37486;BME280;23341;50.296;18.960;2022-11-15T18:16:34;113062.75;;;-144.43;99.96
37486;BME280;23341;50.296;18.960;2022-11-15T18:22:12;113062.75;;;-144.43;100.00
37486;BME280;23341;50.296;18.960;2022-11-15T18:27:50;113062.75;;;-144.43;100.00
37486;BME280;23341;50.296;18.960;2022-11-15T18:33:32;113062.75;;;-144.43;100.00
37486;BME280;23341;50.296;18.960;2022-11-15T18:39:09;113062.75;;;-144.43;100.00
37486;BME280;23341;50.296;18.960;2022-11-15T18:44:46;113062.75;;;-144.43;100.00
37486;BME280;23341;50.296;18.960;2022-11-15T18:50:24;113062.75;;;-144.43;100.00
37486;BME280;23341;50.296;18.960;2022-11-15T18:56:02;113062.75;;;-144.43;100.00
37486;BME280;23341;50.296;18.960;2022-11-15T19:01:41;113062.75;;;-144.43;100.00
37486;BME280;23341;50.296;18.960;2022-11-15T19:07:21;113062.75;;;-144.43;100.00
37486;BME280;23341;50.296;18.960;2022-11-15T19:13:00;113062.75;;;-144.43;100.00
37486;BME280;23341;50.296;18.960;2022-11-15T19:18:37;113062.75;;;-144.43;100.00
37486;BME280;23341;50.296;18.960;2022-11-15T19:24:16;113062.75;;;-144.43;100.00
37486;BME280;23341;50.296;18.960;2022-11-15T19:29:53;113062.75;;;-144.43;100.00
37486;BME280;23341;50.296;18.960;2022-11-15T19:35:36;113062.75;;;-144.43;100.00
37486;BME280;23341;50.296;18.960;2022-11-15T19:41:21;113062.75;;;-144.43;100.00
37486;BME280;23341;50.296;18.960;2022-11-15T19:47:07;113062.75;;;-144.43;100.00
37486;BME280;23341;50.296;18.960;2022-11-15T19:52:57;113062.75;;;-144.43;100.00
37486;BME280;23341;50.296;18.960;2022-11-15T19:58:36;113062.75;;;-144.43;100.00
37486;BME280;23341;50.296;18.960;2022-11-15T20:04:21;113062.75;;;-144.43;100.00
37486;BME280;23341;50.296;18.960;2022-11-15T20:09:58;113062.75;;;-144.43;100.00
37486;BME280;23341;50.296;18.960;2022-11-15T20:15:43;113062.75;;;-144.43;100.00
37486;BME280;23341;50.296;18.960;2022-11-15T20:21:20;113062.75;;;-144.43;100.00
37486;BME280;23341;50.296;18.960;2022-11-15T20:26:57;113062.75;;;-144.43;100.00
37486;BME280;23341;50.296;18.960;2022-11-15T20:32:35;113062.75;;;-144.43;100.00
37486;BME280;23341;50.296;18.960;2022-11-15T20:38:12;113062.75;;;-144.43;100.00
37486;BME280;23341;50.296;18.960;2022-11-15T20:43:49;113062.75;;;-144.43;100.00
37486;BME280;23341;50.296;18.960;2022-11-15T20:49:27;113062.75;;;-144.43;100.00
37486;BME280;23341;50.296;18.960;2022-11-15T20:55:04;113062.75;;;-144.43;100.00
37486;BME280;23341;50.296;18.960;2022-11-15T21:00:42;113062.75;;;-144.43;100.00
37486;BME280;23341;50.296;18.960;2022-11-15T21:06:21;113062.75;;;-144.43;100.00
37486;BME280;23341;50.296;18.960;2022-11-15T21:11:59;113062.75;;;-144.43;99.91
37486;BME280;23341;50.296;18.960;2022-11-15T21:17:42;113062.75;;;-144.43;100.00
37486;BME280;23341;50.296;18.960;2022-11-15T21:23:38;113062.75;;;-144.43;100.00
37486;BME280;23341;50.296;18.960;2022-11-15T21:29:21;113062.75;;;-144.43;100.00
37486;BME280;23341;50.296;18.960;2022-11-15T21:35:05;113062.75;;;-144.43;100.00
37486;BME280;23341;50.296;18.960;2022-11-15T21:40:44;113062.75;;;-144.43;100.00
37486;BME280;23341;50.296;18.960;2022-11-15T21:46:21;113062.75;;;-144.43;100.00
37486;BME280;23341;50.296;18.960;2022-11-15T21:51:58;113062.75;;;-144.43;100.00
37486;BME280;23341;50.296;18.960;2022-11-15T21:57:36;113062.75;;;-144.43;100.00
37486;BME280;23341;50.296;18.960;2022-11-15T22:03:21;113062.75;;;-144.43;100.00
37486;BME280;23341;50.296;18.960;2022-11-15T22:08:58;113062.75;;;-144.43;100.00
37486;BME280;23341;50.296;18.960;2022-11-15T22:14:36;113062.75;;;-144.43;100.00
37486;BME280;23341;50.296;18.960;2022-11-15T22:20:13;113062.75;;;-144.43;100.00
37486;BME280;23341;50.296;18.960;2022-11-15T22:26:05;113062.75;;;-144.43;100.00
37486;BME280;23341;50.296;18.960;2022-11-15T22:31:46;113062.75;;;-144.43;100.00
37486;BME280;23341;50.296;18.960;2022-11-15T22:37:26;113062.75;;;-144.43;100.00
37486;BME280;23341;50.296;18.960;2022-11-15T22:43:03;113062.75;;;-144.43;100.00
37486;BME280;23341;50.296;18.960;2022-11-15T22:48:42;113062.75;;;-144.43;100.00
37486;BME280;23341;50.296;18.960;2022-11-15T22:54:24;113062.75;;;-144.43;100.00
37486;BME280;23341;50.296;18.960;2022-11-15T23:00:01;113062.75;;;-144.43;100.00
37486;BME280;23341;50.296;18.960;2022-11-15T23:05:42;113062.75;;;-144.43;100.00
37486;BME280;23341;50.296;18.960;2022-11-15T23:11:19;113062.75;;;-144.43;100.00
37486;BME280;23341;50.296;18.960;2022-11-15T23:17:14;113062.75;;;-144.43;100.00
37486;BME280;23341;50.296;18.960;2022-11-15T23:22:52;113062.75;;;-144.43;100.00
37486;BME280;23341;50.296;18.960;2022-11-15T23:28:30;113062.75;;;-144.43;100.00
37486;BME280;23341;50.296;18.960;2022-11-15T23:34:08;113062.75;;;-144.43;100.00
37486;BME280;23341;50.296;18.960;2022-11-15T23:39:46;113062.75;;;-144.43;100.00
37486;BME280;23341;50.296;18.960;2022-11-15T23:45:23;113062.75;;;-144.43;100.00
37486;BME280;23341;50.296;18.960;2022-11-15T23:51:00;113062.75;;;-144.43;100.00
37486;BME280;23341;50.296;18.960;2022-11-15T23:56:38;113062.75;;;-144.43;99.27
